sensor_id;sensor_type;location;lat;lon;timestamp;temperature;humidity
4215;DHT22;2121;48.062;7.850;2023-02-01T00:00:16;5.40;99.90
4215;DHT22;2121;48.062;7.850;2023-02-01T00:02:42;5.30;99.90
4215;DHT22;2121;48.062;7.850;2023-02-01T00:05:09;5.30;99.90
4215;DHT22;2121;48.062;7.850;2023-02-01T00:07:36;5.40;99.90
4215;DHT22;2121;48.062;7.850;2023-02-01T00:10:03;5.40;99.90
4215;DHT22;2121;48.062;7.850;2023-02-01T00:12:31;5.40;99.90
4215;DHT22;2121;48.062;7.850;2023-02-01T00:14:57;5.40;99.90
4215;DHT22;2121;48.062;7.850;2023-02-01T00:17:23;5.30;99.90
4215;DHT22;2121;48.062;7.850;2023-02-01T00:19:48;5.40;99.90
4215;DHT22;2121;48.062;7.850;2023-02-01T00:22:14;5.30;99.90
4215;DHT22;2121;48.062;7.850;2023-02-01T00:24:40;5.30;99.90
4215;DHT22;2121;48.062;7.850;2023-02-01T00:27:05;5.30;99.90
4215;DHT22;2121;48.062;7.850;2023-02-01T00:29:31;5.30;99.90
4215;DHT22;2121;48.062;7.850;2023-02-01T00:31:57;5.30;99.90
4215;DHT22;2121;48.062;7.850;2023-02-01T00:34:23;5.30;99.90
4215;DHT22;2121;48.062;7.850;2023-02-01T00:36:49;5.20;99.90
4215;DHT22;2121;48.062;7.850;2023-02-01T00:39:15;5.20;99.90
4215;DHT22;2121;48.062;7.850;2023-02-01T00:41:41;5.20;99.90
4215;DHT22;2121;48.062;7.850;2023-02-01T00:44:06;5.20;99.90
4215;DHT22;2121;48.062;7.850;2023-02-01T00:46:32;5.20;99.90
4215;DHT22;2121;48.062;7.850;2023-02-01T00:48:58;5.20;99.90
4215;DHT22;2121;48.062;7.850;2023-02-01T00:51:26;5.20;99.90
4215;DHT22;2121;48.062;7.850;2023-02-01T00:53:53;5.10;99.90
4215;DHT22;2121;48.062;7.850;2023-02-01T00:56:19;5.10;99.90
4215;DHT22;2121;48.062;7.850;2023-02-01T00:58:45;5.10;99.90
4215;DHT22;2121;48.062;7.850;2023-02-01T01:03:52;5.00;99.90
4215;DHT22;2121;48.062;7.850;2023-02-01T01:06:23;5.10;99.90
4215;DHT22;2121;48.062;7.850;2023-02-01T01:08:54;5.00;99.90
4215;DHT22;2121;48.062;7.850;2023-02-01T01:11:24;5.10;99.90
4215;DHT22;2121;48.062;7.850;2023-02-01T01:13:55;5.00;99.90
4215;DHT22;2121;48.062;7.850;2023-02-01T01:16:23;5.00;99.90
4215;DHT22;2121;48.062;7.850;2023-02-01T01:18:51;5.00;99.90
4215;DHT22;2121;48.062;7.850;2023-02-01T01:21:18;5.00;99.90
4215;DHT22;2121;48.062;7.850;2023-02-01T01:23:45;5.00;99.90
4215;DHT22;2121;48.062;7.850;2023-02-01T01:26:18;5.00;99.90
4215;DHT22;2121;48.062;7.850;2023-02-01T01:28:48;5.00;99.90
4215;DHT22;2121;48.062;7.850;2023-02-01T01:31:16;5.00;99.90
4215;DHT22;2121;48.062;7.850;2023-02-01T01:33:43;5.00;99.90
4215;DHT22;2121;48.062;7.850;2023-02-01T01:36:10;5.00;99.90
4215;DHT22;2121;48.062;7.850;2023-02-01T01:38:37;5.00;99.90
4215;DHT22;2121;48.062;7.850;2023-02-01T01:41:04;5.00;99.90
4215;DHT22;2121;48.062;7.850;2023-02-01T01:51:43;4.90;99.90
4215;DHT22;2121;48.062;7.850;2023-02-01T01:54:19;4.90;99.90
4215;DHT22;2121;48.062;7.850;2023-02-01T01:56:51;4.90;99.90
4215;DHT22;2121;48.062;7.850;2023-02-01T01:59:22;4.90;99.90
4215;DHT22;2121;48.062;7.850;2023-02-01T02:01:50;4.90;99.90
4215;DHT22;2121;48.062;7.850;2023-02-01T02:04:16;4.90;99.90
4215;DHT22;2121;48.062;7.850;2023-02-01T02:06:47;4.90;99.90
4215;DHT22;2121;48.062;7.850;2023-02-01T02:09:15;4.90;99.90
4215;DHT22;2121;48.062;7.850;2023-02-01T02:11:41;4.90;99.90
4215;DHT22;2121;48.062;7.850;2023-02-01T02:14:10;4.90;99.90
4215;DHT22;2121;48.062;7.850;2023-02-01T02:34:55;4.80;99.90
4215;DHT22;2121;48.062;7.850;2023-02-01T02:38:22;4.80;99.90
4215;DHT22;2121;48.062;7.850;2023-02-01T02:40:49;4.80;99.90
4215;DHT22;2121;48.062;7.850;2023-02-01T02:43:27;4.70;99.90
4215;DHT22;2121;48.062;7.850;2023-02-01T02:46:44;4.70;99.90
4215;DHT22;2121;48.062;7.850;2023-02-01T02:49:39;4.70;99.90
4215;DHT22;2121;48.062;7.850;2023-02-01T02:52:30;4.70;99.90
4215;DHT22;2121;48.062;7.850;2023-02-01T02:55:16;4.70;99.90
4215;DHT22;2121;48.062;7.850;2023-02-01T02:57:44;4.70;99.90
4215;DHT22;2121;48.062;7.850;2023-02-01T03:00:32;4.70;99.90
4215;DHT22;2121;48.062;7.850;2023-02-01T03:03:18;4.70;99.90
4215;DHT22;2121;48.062;7.850;2023-02-01T03:06:03;4.70;99.90
4215;DHT22;2121;48.062;7.850;2023-02-01T03:08:30;4.70;99.90
4215;DHT22;2121;48.062;7.850;2023-02-01T03:11:10;4.90;99.90
4215;DHT22;2121;48.062;7.850;2023-02-01T03:13:57;4.70;99.90
4215;DHT22;2121;48.062;7.850;2023-02-01T03:21:57;4.70;99.90
4215;DHT22;2121;48.062;7.850;2023-02-01T03:27:22;4.80;99.90
4215;DHT22;2121;48.062;7.850;2023-02-01T03:29:58;4.70;99.90
4215;DHT22;2121;48.062;7.850;2023-02-01T03:32:28;4.70;99.90
4215;DHT22;2121;48.062;7.850;2023-02-01T03:35:14;4.70;99.90
4215;DHT22;2121;48.062;7.850;2023-02-01T03:37:40;4.70;99.90
4215;DHT22;2121;48.062;7.850;2023-02-01T03:40:08;4.70;99.90
4215;DHT22;2121;48.062;7.850;2023-02-01T03:42:49;4.70;99.90
4215;DHT22;2121;48.062;7.850;2023-02-01T03:45:29;4.70;99.90
4215;DHT22;2121;48.062;7.850;2023-02-01T03:48:00;4.70;99.90
4215;DHT22;2121;48.062;7.850;2023-02-01T03:50:29;4.70;99.90
4215;DHT22;2121;48.062;7.850;2023-02-01T03:53:03;4.60;99.90
4215;DHT22;2121;48.062;7.850;2023-02-01T03:55:31;4.60;99.90
4215;DHT22;2121;48.062;7.850;2023-02-01T03:58:08;4.60;99.90
4215;DHT22;2121;48.062;7.850;2023-02-01T04:00:39;4.50;99.90
4215;DHT22;2121;48.062;7.850;2023-02-01T04:03:06;4.50;99.90
4215;DHT22;2121;48.062;7.850;2023-02-01T04:05:32;4.50;99.90
4215;DHT22;2121;48.062;7.850;2023-02-01T04:07:58;4.50;99.90
4215;DHT22;2121;48.062;7.850;2023-02-01T04:10:24;4.50;99.90
4215;DHT22;2121;48.062;7.850;2023-02-01T04:12:50;4.40;99.90
4215;DHT22;2121;48.062;7.850;2023-02-01T04:15:16;4.40;99.90
4215;DHT22;2121;48.062;7.850;2023-02-01T04:17:42;4.40;99.90
4215;DHT22;2121;48.062;7.850;2023-02-01T04:20:08;4.30;99.90
4215;DHT22;2121;48.062;7.850;2023-02-01T04:22:34;4.30;99.90
4215;DHT22;2121;48.062;7.850;2023-02-01T04:25:00;4.30;99.90
4215;DHT22;2121;48.062;7.850;2023-02-01T04:27:26;4.30;99.90
4215;DHT22;2121;48.062;7.850;2023-02-01T04:29:52;4.20;99.90
4215;DHT22;2121;48.062;7.850;2023-02-01T04:32:18;4.20;99.90
4215;DHT22;2121;48.062;7.850;2023-02-01T04:34:45;4.20;99.90
4215;DHT22;2121;48.062;7.850;2023-02-01T04:37:11;4.20;99.90
4215;DHT22;2121;48.062;7.850;2023-02-01T04:39:37;4.10;99.90
4215;DHT22;2121;48.062;7.850;2023-02-01T04:42:03;4.10;99.90
4215;DHT22;2121;48.062;7.850;2023-02-01T04:44:29;4.10;99.90
4215;DHT22;2121;48.062;7.850;2023-02-01T04:46:54;4.20;99.90
4215;DHT22;2121;48.062;7.850;2023-02-01T04:49:20;4.10;99.90
4215;DHT22;2121;48.062;7.850;2023-02-01T04:51:47;4.10;99.90
4215;DHT22;2121;48.062;7.850;2023-02-01T04:54:13;4.00;99.90
4215;DHT22;2121;48.062;7.850;2023-02-01T04:56:39;4.00;99.90
4215;DHT22;2121;48.062;7.850;2023-02-01T04:59:05;3.90;99.90
4215;DHT22;2121;48.062;7.850;2023-02-01T05:01:31;3.90;99.90
4215;DHT22;2121;48.062;7.850;2023-02-01T05:03:57;3.90;99.90
4215;DHT22;2121;48.062;7.850;2023-02-01T05:06:23;3.90;99.90
4215;DHT22;2121;48.062;7.850;2023-02-01T05:08:49;4.00;99.90
4215;DHT22;2121;48.062;7.850;2023-02-01T05:11:15;4.00;99.90
4215;DHT22;2121;48.062;7.850;2023-02-01T05:14:00;4.00;99.90
4215;DHT22;2121;48.062;7.850;2023-02-01T05:16:26;4.00;99.90
4215;DHT22;2121;48.062;7.850;2023-02-01T05:18:53;4.10;99.90
4215;DHT22;2121;48.062;7.850;2023-02-01T05:21:19;4.10;99.90
4215;DHT22;2121;48.062;7.850;2023-02-01T05:23:44;4.10;99.90
4215;DHT22;2121;48.062;7.850;2023-02-01T05:26:29;4.10;99.90
4215;DHT22;2121;48.062;7.850;2023-02-01T05:28:54;4.10;99.90
4215;DHT22;2121;48.062;7.850;2023-02-01T05:31:20;4.20;99.90
4215;DHT22;2121;48.062;7.850;2023-02-01T05:33:47;4.10;99.90
4215;DHT22;2121;48.062;7.850;2023-02-01T05:36:13;4.10;99.90
4215;DHT22;2121;48.062;7.850;2023-02-01T05:38:39;4.10;99.90
4215;DHT22;2121;48.062;7.850;2023-02-01T05:41:06;4.10;99.90
4215;DHT22;2121;48.062;7.850;2023-02-01T05:43:31;4.00;99.90
4215;DHT22;2121;48.062;7.850;2023-02-01T05:45:57;4.00;99.90
4215;DHT22;2121;48.062;7.850;2023-02-01T05:48:24;4.00;99.90
4215;DHT22;2121;48.062;7.850;2023-02-01T05:50:50;4.00;99.90
4215;DHT22;2121;48.062;7.850;2023-02-01T05:53:15;3.90;99.90
4215;DHT22;2121;48.062;7.850;2023-02-01T05:55:42;3.90;99.90
4215;DHT22;2121;48.062;7.850;2023-02-01T05:58:07;4.00;99.90
4215;DHT22;2121;48.062;7.850;2023-02-01T06:00:34;4.00;99.90
4215;DHT22;2121;48.062;7.850;2023-02-01T06:03:00;4.00;99.90
4215;DHT22;2121;48.062;7.850;2023-02-01T06:05:26;4.00;99.90
4215;DHT22;2121;48.062;7.850;2023-02-01T06:07:52;4.00;99.90
4215;DHT22;2121;48.062;7.850;2023-02-01T06:10:18;4.10;99.90
4215;DHT22;2121;48.062;7.850;2023-02-01T06:12:45;4.00;99.90
4215;DHT22;2121;48.062;7.850;2023-02-01T06:15:11;4.00;99.90
4215;DHT22;2121;48.062;7.850;2023-02-01T06:17:38;4.00;99.90
4215;DHT22;2121;48.062;7.850;2023-02-01T06:20:05;4.00;99.90
4215;DHT22;2121;48.062;7.850;2023-02-01T06:22:32;3.90;99.90
4215;DHT22;2121;48.062;7.850;2023-02-01T06:24:58;4.00;99.90
4215;DHT22;2121;48.062;7.850;2023-02-01T06:27:24;3.90;99.90
4215;DHT22;2121;48.062;7.850;2023-02-01T06:29:50;4.00;99.90
4215;DHT22;2121;48.062;7.850;2023-02-01T06:32:16;4.00;99.90
4215;DHT22;2121;48.062;7.850;2023-02-01T06:34:43;4.00;99.90
4215;DHT22;2121;48.062;7.850;2023-02-01T06:37:09;4.10;99.90
4215;DHT22;2121;48.062;7.850;2023-02-01T06:39:36;4.00;99.90
4215;DHT22;2121;48.062;7.850;2023-02-01T06:42:02;4.00;99.90
4215;DHT22;2121;48.062;7.850;2023-02-01T06:44:28;4.00;99.90
4215;DHT22;2121;48.062;7.850;2023-02-01T06:46:55;4.00;99.90
4215;DHT22;2121;48.062;7.850;2023-02-01T06:49:21;4.00;99.90
4215;DHT22;2121;48.062;7.850;2023-02-01T06:51:47;4.00;99.90
4215;DHT22;2121;48.062;7.850;2023-02-01T06:54:12;4.00;99.90
4215;DHT22;2121;48.062;7.850;2023-02-01T06:56:38;4.00;99.90
4215;DHT22;2121;48.062;7.850;2023-02-01T06:59:05;4.10;99.90
4215;DHT22;2121;48.062;7.850;2023-02-01T07:01:32;4.10;99.90
4215;DHT22;2121;48.062;7.850;2023-02-01T07:03:58;4.10;99.90
4215;DHT22;2121;48.062;7.850;2023-02-01T07:06:24;4.00;99.90
4215;DHT22;2121;48.062;7.850;2023-02-01T07:08:50;4.10;99.90
4215;DHT22;2121;48.062;7.850;2023-02-01T07:11:18;4.00;99.90
4215;DHT22;2121;48.062;7.850;2023-02-01T07:13:44;4.10;99.90
4215;DHT22;2121;48.062;7.850;2023-02-01T07:16:13;4.00;99.90
4215;DHT22;2121;48.062;7.850;2023-02-01T07:18:41;4.10;99.90
4215;DHT22;2121;48.062;7.850;2023-02-01T07:21:07;4.00;99.90
4215;DHT22;2121;48.062;7.850;2023-02-01T07:23:33;4.00;99.90
4215;DHT22;2121;48.062;7.850;2023-02-01T07:26:00;4.00;99.90
4215;DHT22;2121;48.062;7.850;2023-02-01T07:28:30;4.00;99.90
4215;DHT22;2121;48.062;7.850;2023-02-01T07:31:10;4.10;99.90
4215;DHT22;2121;48.062;7.850;2023-02-01T07:33:38;4.10;99.90
4215;DHT22;2121;48.062;7.850;2023-02-01T07:36:06;4.20;99.90
4215;DHT22;2121;48.062;7.850;2023-02-01T07:38:33;4.10;99.90
4215;DHT22;2121;48.062;7.850;2023-02-01T07:41:01;4.10;99.90
4215;DHT22;2121;48.062;7.850;2023-02-01T07:43:28;4.00;99.90
4215;DHT22;2121;48.062;7.850;2023-02-01T07:45:55;4.00;99.90
4215;DHT22;2121;48.062;7.850;2023-02-01T07:48:22;3.90;99.90
4215;DHT22;2121;48.062;7.850;2023-02-01T07:50:56;3.90;99.90
4215;DHT22;2121;48.062;7.850;2023-02-01T07:53:22;3.90;99.90
4215;DHT22;2121;48.062;7.850;2023-02-01T07:55:48;3.90;99.90
4215;DHT22;2121;48.062;7.850;2023-02-01T07:58:13;4.00;99.90
4215;DHT22;2121;48.062;7.850;2023-02-01T08:00:39;4.10;99.90
4215;DHT22;2121;48.062;7.850;2023-02-01T08:03:23;4.10;99.90
4215;DHT22;2121;48.062;7.850;2023-02-01T08:05:54;4.20;99.90
4215;DHT22;2121;48.062;7.850;2023-02-01T08:08:21;4.30;99.90
4215;DHT22;2121;48.062;7.850;2023-02-01T08:10:47;4.30;99.90
4215;DHT22;2121;48.062;7.850;2023-02-01T08:13:13;4.40;99.90
4215;DHT22;2121;48.062;7.850;2023-02-01T08:15:38;4.40;99.90
4215;DHT22;2121;48.062;7.850;2023-02-01T08:18:04;4.50;99.90
4215;DHT22;2121;48.062;7.850;2023-02-01T08:20:30;4.50;99.90
4215;DHT22;2121;48.062;7.850;2023-02-01T08:22:57;4.50;99.90
4215;DHT22;2121;48.062;7.850;2023-02-01T08:25:23;4.50;99.90
4215;DHT22;2121;48.062;7.850;2023-02-01T08:27:50;4.60;99.90
4215;DHT22;2121;48.062;7.850;2023-02-01T08:30:16;4.70;99.90
4215;DHT22;2121;48.062;7.850;2023-02-01T08:32:42;4.70;99.90
4215;DHT22;2121;48.062;7.850;2023-02-01T08:35:08;4.70;99.90
4215;DHT22;2121;48.062;7.850;2023-02-01T08:37:34;4.60;99.90
4215;DHT22;2121;48.062;7.850;2023-02-01T08:40:00;4.60;99.90
4215;DHT22;2121;48.062;7.850;2023-02-01T08:42:26;4.60;99.90
4215;DHT22;2121;48.062;7.850;2023-02-01T08:45:10;4.60;99.90
4215;DHT22;2121;48.062;7.850;2023-02-01T08:47:36;4.70;99.90
4215;DHT22;2121;48.062;7.850;2023-02-01T08:50:02;4.70;99.90
4215;DHT22;2121;48.062;7.850;2023-02-01T08:52:28;4.70;99.90
4215;DHT22;2121;48.062;7.850;2023-02-01T08:54:53;4.70;99.90
4215;DHT22;2121;48.062;7.850;2023-02-01T08:57:19;4.60;99.90
4215;DHT22;2121;48.062;7.850;2023-02-01T08:59:45;4.60;99.90
4215;DHT22;2121;48.062;7.850;2023-02-01T09:02:14;4.60;99.90
4215;DHT22;2121;48.062;7.850;2023-02-01T09:04:41;4.70;99.90
4215;DHT22;2121;48.062;7.850;2023-02-01T09:07:10;4.70;99.90
4215;DHT22;2121;48.062;7.850;2023-02-01T09:09:36;4.80;99.90
4215;DHT22;2121;48.062;7.850;2023-02-01T09:12:03;4.90;99.90
4215;DHT22;2121;48.062;7.850;2023-02-01T09:14:29;5.00;99.90
4215;DHT22;2121;48.062;7.850;2023-02-01T09:16:55;5.10;99.90
4215;DHT22;2121;48.062;7.850;2023-02-01T09:19:21;5.10;99.90
4215;DHT22;2121;48.062;7.850;2023-02-01T09:21:47;5.00;99.90
4215;DHT22;2121;48.062;7.850;2023-02-01T09:24:13;5.00;99.90
4215;DHT22;2121;48.062;7.850;2023-02-01T09:26:39;5.00;99.90
4215;DHT22;2121;48.062;7.850;2023-02-01T09:29:05;4.90;99.90
4215;DHT22;2121;48.062;7.850;2023-02-01T09:31:39;4.90;99.90
4215;DHT22;2121;48.062;7.850;2023-02-01T09:34:06;4.90;99.90
4215;DHT22;2121;48.062;7.850;2023-02-01T09:36:33;5.00;99.90
4215;DHT22;2121;48.062;7.850;2023-02-01T09:38:59;5.00;99.90
4215;DHT22;2121;48.062;7.850;2023-02-01T09:42:05;4.90;99.90
4215;DHT22;2121;48.062;7.850;2023-02-01T09:47:48;5.00;99.90
4215;DHT22;2121;48.062;7.850;2023-02-01T09:50:19;5.10;99.90
4215;DHT22;2121;48.062;7.850;2023-02-01T09:55:42;5.50;99.90
4215;DHT22;2121;48.062;7.850;2023-02-01T09:58:27;5.70;99.90
4215;DHT22;2121;48.062;7.850;2023-02-01T10:01:00;6.10;99.90
4215;DHT22;2121;48.062;7.850;2023-02-01T10:03:34;6.30;99.90
4215;DHT22;2121;48.062;7.850;2023-02-01T10:09:31;6.70;99.90
4215;DHT22;2121;48.062;7.850;2023-02-01T10:12:32;6.50;99.90
4215;DHT22;2121;48.062;7.850;2023-02-01T10:26:32;6.20;99.90
4215;DHT22;2121;48.062;7.850;2023-02-01T10:29:02;6.20;99.90
4215;DHT22;2121;48.062;7.850;2023-02-01T10:31:35;6.30;99.90
4215;DHT22;2121;48.062;7.850;2023-02-01T10:34:34;6.40;99.90
4215;DHT22;2121;48.062;7.850;2023-02-01T10:39:54;6.20;99.90
4215;DHT22;2121;48.062;7.850;2023-02-01T10:42:25;6.00;99.90
4215;DHT22;2121;48.062;7.850;2023-02-01T10:44:59;5.80;99.90
4215;DHT22;2121;48.062;7.850;2023-02-01T10:47:27;5.60;99.90
4215;DHT22;2121;48.062;7.850;2023-02-01T10:50:16;5.50;99.90
4215;DHT22;2121;48.062;7.850;2023-02-01T10:53:04;5.50;99.90
4215;DHT22;2121;48.062;7.850;2023-02-01T10:55:37;5.40;99.90
4215;DHT22;2121;48.062;7.850;2023-02-01T10:58:31;5.20;99.90
4215;DHT22;2121;48.062;7.850;2023-02-01T11:06:45;5.30;99.90
4215;DHT22;2121;48.062;7.850;2023-02-01T11:09:19;5.40;99.90
4215;DHT22;2121;48.062;7.850;2023-02-01T11:14:19;5.50;99.90
4215;DHT22;2121;48.062;7.850;2023-02-01T11:16:56;5.60;99.90
4215;DHT22;2121;48.062;7.850;2023-02-01T11:19:24;5.70;99.90
4215;DHT22;2121;48.062;7.850;2023-02-01T11:21:58;5.90;99.90
4215;DHT22;2121;48.062;7.850;2023-02-01T11:24:33;5.90;99.90
4215;DHT22;2121;48.062;7.850;2023-02-01T11:27:14;5.90;99.90
4215;DHT22;2121;48.062;7.850;2023-02-01T11:29:43;6.10;99.90
4215;DHT22;2121;48.062;7.850;2023-02-01T11:32:13;6.10;99.90
4215;DHT22;2121;48.062;7.850;2023-02-01T11:35:06;6.20;99.90
4215;DHT22;2121;48.062;7.850;2023-02-01T11:37:36;6.40;99.90
4215;DHT22;2121;48.062;7.850;2023-02-01T11:40:23;6.50;99.90
4215;DHT22;2121;48.062;7.850;2023-02-01T11:43:08;6.70;99.90
4215;DHT22;2121;48.062;7.850;2023-02-01T11:45:59;7.00;99.90
4215;DHT22;2121;48.062;7.850;2023-02-01T11:48:29;7.20;99.90
4215;DHT22;2121;48.062;7.850;2023-02-01T11:51:06;7.20;99.90
4215;DHT22;2121;48.062;7.850;2023-02-01T11:59:19;7.30;99.90
4215;DHT22;2121;48.062;7.850;2023-02-01T12:07:28;7.30;99.90
4215;DHT22;2121;48.062;7.850;2023-02-01T12:34:31;7.00;99.90
4215;DHT22;2121;48.062;7.850;2023-02-01T12:37:28;6.90;99.90
4215;DHT22;2121;48.062;7.850;2023-02-01T12:42:47;6.80;99.90
4215;DHT22;2121;48.062;7.850;2023-02-01T12:46:21;6.80;99.90
4215;DHT22;2121;48.062;7.850;2023-02-01T12:48:54;6.70;99.90
4215;DHT22;2121;48.062;7.850;2023-02-01T12:51:28;6.70;99.90
4215;DHT22;2121;48.062;7.850;2023-02-01T12:54:21;6.70;99.90
4215;DHT22;2121;48.062;7.850;2023-02-01T12:57:01;6.70;99.90
4215;DHT22;2121;48.062;7.850;2023-02-01T12:59:44;6.60;99.90
4215;DHT22;2121;48.062;7.850;2023-02-01T13:09:18;6.70;99.90
4215;DHT22;2121;48.062;7.850;2023-02-01T13:11:50;6.60;99.90
4215;DHT22;2121;48.062;7.850;2023-02-01T13:17:26;6.70;99.90
4215;DHT22;2121;48.062;7.850;2023-02-01T13:23:09;6.70;99.90
4215;DHT22;2121;48.062;7.850;2023-02-01T13:25:47;6.70;99.90
4215;DHT22;2121;48.062;7.850;2023-02-01T13:28:32;6.70;99.90
4215;DHT22;2121;48.062;7.850;2023-02-01T13:31:20;6.70;99.90
4215;DHT22;2121;48.062;7.850;2023-02-01T13:40:44;6.90;99.90
4215;DHT22;2121;48.062;7.850;2023-02-01T13:43:15;7.00;99.90
4215;DHT22;2121;48.062;7.850;2023-02-01T13:45:49;7.00;99.90
4215;DHT22;2121;48.062;7.850;2023-02-01T13:48:31;6.90;99.90
4215;DHT22;2121;48.062;7.850;2023-02-01T13:51:02;6.80;99.90
4215;DHT22;2121;48.062;7.850;2023-02-01T13:53:35;6.80;99.90
4215;DHT22;2121;48.062;7.850;2023-02-01T13:56:15;6.80;99.90
4215;DHT22;2121;48.062;7.850;2023-02-01T13:58:46;6.80;99.90
4215;DHT22;2121;48.062;7.850;2023-02-01T14:06:40;6.70;99.90
4215;DHT22;2121;48.062;7.850;2023-02-01T14:16:41;6.60;99.90
4215;DHT22;2121;48.062;7.850;2023-02-01T14:19:17;6.60;99.90
4215;DHT22;2121;48.062;7.850;2023-02-01T14:21:49;6.60;99.90
4215;DHT22;2121;48.062;7.850;2023-02-01T14:26:56;6.50;99.90
4215;DHT22;2121;48.062;7.850;2023-02-01T14:32:22;6.50;99.90
4215;DHT22;2121;48.062;7.850;2023-02-01T14:35:01;6.40;99.90
4215;DHT22;2121;48.062;7.850;2023-02-01T14:37:33;6.40;99.90
4215;DHT22;2121;48.062;7.850;2023-02-01T14:42:48;6.40;99.90
4215;DHT22;2121;48.062;7.850;2023-02-01T14:47:45;6.40;99.90
4215;DHT22;2121;48.062;7.850;2023-02-01T14:53:21;6.40;99.90
4215;DHT22;2121;48.062;7.850;2023-02-01T14:56:04;6.40;99.90
4215;DHT22;2121;48.062;7.850;2023-02-01T15:06:49;6.40;99.90
4215;DHT22;2121;48.062;7.850;2023-02-01T15:14:38;6.30;99.90
4215;DHT22;2121;48.062;7.850;2023-02-01T15:17:23;6.30;99.90
4215;DHT22;2121;48.062;7.850;2023-02-01T15:20:01;6.30;99.90
4215;DHT22;2121;48.062;7.850;2023-02-01T15:22:31;6.30;99.90
4215;DHT22;2121;48.062;7.850;2023-02-01T15:24:59;6.30;99.90
4215;DHT22;2121;48.062;7.850;2023-02-01T15:27:26;6.40;99.90
4215;DHT22;2121;48.062;7.850;2023-02-01T15:29:53;6.30;99.90
4215;DHT22;2121;48.062;7.850;2023-02-01T15:32:35;6.30;99.90
4215;DHT22;2121;48.062;7.850;2023-02-01T15:35:05;6.30;99.90
4215;DHT22;2121;48.062;7.850;2023-02-01T15:41:08;6.30;99.90
4215;DHT22;2121;48.062;7.850;2023-02-01T15:46:31;6.30;99.90
4215;DHT22;2121;48.062;7.850;2023-02-01T15:49:01;6.30;99.90
4215;DHT22;2121;48.062;7.850;2023-02-01T15:51:29;6.30;99.90
4215;DHT22;2121;48.062;7.850;2023-02-01T15:54:01;6.30;99.90
4215;DHT22;2121;48.062;7.850;2023-02-01T15:56:34;6.20;99.90
4215;DHT22;2121;48.062;7.850;2023-02-01T15:59:13;6.20;99.90
4215;DHT22;2121;48.062;7.850;2023-02-01T16:01:41;6.20;99.90
4215;DHT22;2121;48.062;7.850;2023-02-01T16:04:19;6.20;99.90
4215;DHT22;2121;48.062;7.850;2023-02-01T16:06:53;6.30;99.90
4215;DHT22;2121;48.062;7.850;2023-02-01T16:09:23;6.30;99.90
4215;DHT22;2121;48.062;7.850;2023-02-01T16:14:20;6.20;99.90
4215;DHT22;2121;48.062;7.850;2023-02-01T16:16:47;6.20;99.90
4215;DHT22;2121;48.062;7.850;2023-02-01T16:19:13;6.20;99.90
4215;DHT22;2121;48.062;7.850;2023-02-01T16:21:39;6.20;99.90
4215;DHT22;2121;48.062;7.850;2023-02-01T16:24:04;6.20;99.90
4215;DHT22;2121;48.062;7.850;2023-02-01T16:26:31;6.20;99.90
4215;DHT22;2121;48.062;7.850;2023-02-01T16:28:59;6.20;99.90
4215;DHT22;2121;48.062;7.850;2023-02-01T16:31:29;6.20;99.90
4215;DHT22;2121;48.062;7.850;2023-02-01T16:33:56;6.10;99.90
4215;DHT22;2121;48.062;7.850;2023-02-01T16:36:22;6.10;99.90
4215;DHT22;2121;48.062;7.850;2023-02-01T16:38:49;6.10;99.90
4215;DHT22;2121;48.062;7.850;2023-02-01T16:41:18;6.10;99.90
4215;DHT22;2121;48.062;7.850;2023-02-01T16:43:44;6.10;99.90
4215;DHT22;2121;48.062;7.850;2023-02-01T16:46:16;6.20;99.90
4215;DHT22;2121;48.062;7.850;2023-02-01T16:48:48;6.10;99.90
4215;DHT22;2121;48.062;7.850;2023-02-01T16:51:17;6.10;99.90
4215;DHT22;2121;48.062;7.850;2023-02-01T16:53:44;6.10;99.90
4215;DHT22;2121;48.062;7.850;2023-02-01T16:56:18;6.10;99.90
4215;DHT22;2121;48.062;7.850;2023-02-01T16:58:46;6.10;99.90
4215;DHT22;2121;48.062;7.850;2023-02-01T17:01:16;6.10;99.90
4215;DHT22;2121;48.062;7.850;2023-02-01T17:03:43;6.10;99.90
4215;DHT22;2121;48.062;7.850;2023-02-01T17:06:12;6.00;99.90
4215;DHT22;2121;48.062;7.850;2023-02-01T17:08:42;6.10;99.90
4215;DHT22;2121;48.062;7.850;2023-02-01T17:11:11;6.10;99.90
4215;DHT22;2121;48.062;7.850;2023-02-01T17:13:41;6.10;99.90
4215;DHT22;2121;48.062;7.850;2023-02-01T17:16:29;6.10;99.90
4215;DHT22;2121;48.062;7.850;2023-02-01T17:19:13;6.00;99.90
4215;DHT22;2121;48.062;7.850;2023-02-01T17:21:47;6.10;99.90
4215;DHT22;2121;48.062;7.850;2023-02-01T17:24:29;6.10;99.90
4215;DHT22;2121;48.062;7.850;2023-02-01T17:26:56;6.00;99.90
4215;DHT22;2121;48.062;7.850;2023-02-01T17:29:22;6.00;99.90
4215;DHT22;2121;48.062;7.850;2023-02-01T17:31:53;6.00;99.90
4215;DHT22;2121;48.062;7.850;2023-02-01T17:34:19;6.00;99.90
4215;DHT22;2121;48.062;7.850;2023-02-01T17:36:47;5.90;99.90
4215;DHT22;2121;48.062;7.850;2023-02-01T17:39:14;6.00;99.90
4215;DHT22;2121;48.062;7.850;2023-02-01T17:42:01;5.90;99.90
4215;DHT22;2121;48.062;7.850;2023-02-01T17:44:27;6.00;99.90
4215;DHT22;2121;48.062;7.850;2023-02-01T17:46:53;5.90;99.90
4215;DHT22;2121;48.062;7.850;2023-02-01T17:49:20;6.00;99.90
4215;DHT22;2121;48.062;7.850;2023-02-01T17:51:45;5.90;99.90
4215;DHT22;2121;48.062;7.850;2023-02-01T17:54:14;6.00;99.90
4215;DHT22;2121;48.062;7.850;2023-02-01T17:56:41;5.90;99.90
4215;DHT22;2121;48.062;7.850;2023-02-01T17:59:07;5.90;99.90
4215;DHT22;2121;48.062;7.850;2023-02-01T18:01:32;5.90;99.90
4215;DHT22;2121;48.062;7.850;2023-02-01T18:03:58;5.90;99.90
4215;DHT22;2121;48.062;7.850;2023-02-01T18:06:25;5.90;99.90
4215;DHT22;2121;48.062;7.850;2023-02-01T18:08:52;6.00;99.90
4215;DHT22;2121;48.062;7.850;2023-02-01T18:11:23;5.90;99.90
4215;DHT22;2121;48.062;7.850;2023-02-01T18:13:50;5.90;99.90
4215;DHT22;2121;48.062;7.850;2023-02-01T18:16:23;5.90;99.90
4215;DHT22;2121;48.062;7.850;2023-02-01T18:18:53;5.90;99.90
4215;DHT22;2121;48.062;7.850;2023-02-01T18:21:22;5.90;99.90
4215;DHT22;2121;48.062;7.850;2023-02-01T18:23:48;5.90;99.90
4215;DHT22;2121;48.062;7.850;2023-02-01T18:26:17;5.90;99.90
4215;DHT22;2121;48.062;7.850;2023-02-01T18:28:43;5.80;99.90
4215;DHT22;2121;48.062;7.850;2023-02-01T18:31:22;5.80;99.90
4215;DHT22;2121;48.062;7.850;2023-02-01T18:33:50;5.80;99.90
4215;DHT22;2121;48.062;7.850;2023-02-01T18:36:17;5.80;99.90
4215;DHT22;2121;48.062;7.850;2023-02-01T18:38:43;5.80;99.90
4215;DHT22;2121;48.062;7.850;2023-02-01T18:41:16;5.80;99.90
4215;DHT22;2121;48.062;7.850;2023-02-01T18:43:46;5.80;99.90
4215;DHT22;2121;48.062;7.850;2023-02-01T18:46:12;5.80;99.90
4215;DHT22;2121;48.062;7.850;2023-02-01T18:48:40;5.80;99.90
4215;DHT22;2121;48.062;7.850;2023-02-01T18:51:10;5.80;99.90
4215;DHT22;2121;48.062;7.850;2023-02-01T18:53:37;5.80;99.90
4215;DHT22;2121;48.062;7.850;2023-02-01T18:56:03;5.80;99.90
4215;DHT22;2121;48.062;7.850;2023-02-01T18:58:29;5.80;99.90
4215;DHT22;2121;48.062;7.850;2023-02-01T19:00:57;5.80;99.90
4215;DHT22;2121;48.062;7.850;2023-02-01T19:03:30;5.80;99.90
4215;DHT22;2121;48.062;7.850;2023-02-01T19:05:56;5.80;99.90
4215;DHT22;2121;48.062;7.850;2023-02-01T19:08:22;5.80;99.90
4215;DHT22;2121;48.062;7.850;2023-02-01T19:10:51;5.80;99.90
4215;DHT22;2121;48.062;7.850;2023-02-01T19:13:18;5.80;99.90
4215;DHT22;2121;48.062;7.850;2023-02-01T19:15:49;5.80;99.90
4215;DHT22;2121;48.062;7.850;2023-02-01T19:18:15;5.80;99.90
4215;DHT22;2121;48.062;7.850;2023-02-01T19:20:46;5.80;99.90
4215;DHT22;2121;48.062;7.850;2023-02-01T19:23:15;5.80;99.90
4215;DHT22;2121;48.062;7.850;2023-02-01T19:25:46;5.80;99.90
4215;DHT22;2121;48.062;7.850;2023-02-01T19:28:13;5.80;99.90
4215;DHT22;2121;48.062;7.850;2023-02-01T19:30:40;5.80;99.90
4215;DHT22;2121;48.062;7.850;2023-02-01T19:33:06;5.80;99.90
4215;DHT22;2121;48.062;7.850;2023-02-01T19:35:32;5.70;99.90